sensor_id;sensor_type;location;lat;lon;timestamp;pressure;altitude;pressure_sealevel;temperature;humidity
51781;BME280;37844;57.126;24.288;2023-05-03T00:00:20;101950.72;;;4.52;100.00
51781;BME280;37844;57.126;24.288;2023-05-03T00:03:04;101958.66;;;4.57;100.00
51781;BME280;37844;57.126;24.288;2023-05-03T00:05:49;101964.63;;;4.57;100.00
51781;BME280;37844;57.126;24.288;2023-05-03T00:08:33;101971.06;;;4.51;100.00
51781;BME280;37844;57.126;24.288;2023-05-03T00:11:17;101975.13;;;4.32;100.00
51781;BME280;37844;57.126;24.288;2023-05-03T00:14:01;101976.00;;;4.33;100.00
51781;BME280;37844;57.126;24.288;2023-05-03T00:16:45;101975.13;;;4.32;100.00
51781;BME280;37844;57.126;24.288;2023-05-03T00:19:29;101980.03;;;4.29;100.00
51781;BME280;37844;57.126;24.288;2023-05-03T00:22:15;101983.38;;;4.28;100.00
51781;BME280;37844;57.126;24.288;2023-05-03T00:24:59;101993.97;;;4.34;100.00
51781;BME280;37844;57.126;24.288;2023-05-03T00:27:43;101988.53;;;4.15;100.00
51781;BME280;37844;57.126;24.288;2023-05-03T00:30:27;102013.91;;;4.27;100.00
51781;BME280;37844;57.126;24.288;2023-05-03T00:33:11;102017.97;;;4.23;100.00
51781;BME280;37844;57.126;24.288;2023-05-03T00:35:55;102023.63;;;3.89;100.00
51781;BME280;37844;57.126;24.288;2023-05-03T00:38:40;102025.66;;;4.10;100.00
51781;BME280;37844;57.126;24.288;2023-05-03T00:41:24;102025.81;;;3.98;100.00
51781;BME280;37844;57.126;24.288;2023-05-03T00:44:08;102028.00;;;3.64;100.00
51781;BME280;37844;57.126;24.288;2023-05-03T00:46:53;102036.75;;;3.54;100.00
51781;BME280;37844;57.126;24.288;2023-05-03T00:49:37;102036.34;;;3.48;100.00
51781;BME280;37844;57.126;24.288;2023-05-03T00:52:21;102029.31;;;3.30;100.00
51781;BME280;37844;57.126;24.288;2023-05-03T00:55:05;102030.19;;;3.31;100.00
51781;BME280;37844;57.126;24.288;2023-05-03T00:57:50;102028.72;;;3.34;100.00
51781;BME280;37844;57.126;24.288;2023-05-03T01:00:34;102020.47;;;3.38;100.00
51781;BME280;37844;57.126;24.288;2023-05-03T01:03:18;102026.03;;;3.46;100.00
51781;BME280;37844;57.126;24.288;2023-05-03T01:09:14;102019.53;;;3.65;100.00
51781;BME280;37844;57.126;24.288;2023-05-03T01:17:35;102023.47;;;3.59;100.00
51781;BME280;37844;57.126;24.288;2023-05-03T01:20:22;102017.50;;;3.59;100.00
51781;BME280;37844;57.126;24.288;2023-05-03T01:23:28;102012.69;;;3.64;100.00
51781;BME280;37844;57.126;24.288;2023-05-03T01:28:59;102018.53;;;3.76;100.00
51781;BME280;37844;57.126;24.288;2023-05-03T01:31:48;102014.00;;;3.85;100.00
51781;BME280;37844;57.126;24.288;2023-05-03T01:37:19;102019.69;;;4.09;100.00
51781;BME280;37844;57.126;24.288;2023-05-03T01:40:05;102018.88;;;4.10;100.00
51781;BME280;37844;57.126;24.288;2023-05-03T01:42:52;102016.81;;;4.18;100.00
51781;BME280;37844;57.126;24.288;2023-05-03T01:45:37;102019.53;;;4.21;100.00
51781;BME280;37844;57.126;24.288;2023-05-03T01:48:22;102020.00;;;4.29;100.00
51781;BME280;37844;57.126;24.288;2023-05-03T01:51:06;102018.94;;;4.40;100.00
51781;BME280;37844;57.126;24.288;2023-05-03T01:53:50;102021.78;;;4.44;100.00
51781;BME280;37844;57.126;24.288;2023-05-03T01:56:34;102018.09;;;4.54;100.00
51781;BME280;37844;57.126;24.288;2023-05-03T01:59:22;102017.28;;;4.55;100.00
51781;BME280;37844;57.126;24.288;2023-05-03T02:02:06;102017.22;;;4.54;100.00
51781;BME280;37844;57.126;24.288;2023-05-03T02:04:49;102019.22;;;4.59;100.00
51781;BME280;37844;57.126;24.288;2023-05-03T02:07:33;102015.97;;;4.62;100.00
51781;BME280;37844;57.126;24.288;2023-05-03T02:10:17;102016.31;;;4.68;100.00
51781;BME280;37844;57.126;24.288;2023-05-03T02:13:01;102019.38;;;4.62;100.00
51781;BME280;37844;57.126;24.288;2023-05-03T02:15:46;102021.22;;;4.65;100.00
51781;BME280;37844;57.126;24.288;2023-05-03T02:18:30;102018.88;;;4.68;100.00
51781;BME280;37844;57.126;24.288;2023-05-03T02:21:14;102027.69;;;4.73;100.00
51781;BME280;37844;57.126;24.288;2023-05-03T02:23:58;102026.00;;;4.74;100.00
51781;BME280;37844;57.126;24.288;2023-05-03T02:26:43;102018.25;;;4.72;100.00
51781;BME280;37844;57.126;24.288;2023-05-03T02:29:27;102023.53;;;4.75;100.00
51781;BME280;37844;57.126;24.288;2023-05-03T02:32:11;102010.16;;;4.79;100.00
51781;BME280;37844;57.126;24.288;2023-05-03T02:34:55;102016.22;;;4.81;100.00
51781;BME280;37844;57.126;24.288;2023-05-03T02:37:39;102020.63;;;4.84;100.00
51781;BME280;37844;57.126;24.288;2023-05-03T02:40:22;102022.56;;;4.88;100.00
51781;BME280;37844;57.126;24.288;2023-05-03T02:43:07;102021.78;;;4.89;100.00
51781;BME280;37844;57.126;24.288;2023-05-03T02:45:50;102023.69;;;4.93;100.00
51781;BME280;37844;57.126;24.288;2023-05-03T02:48:34;102017.00;;;4.95;100.00
51781;BME280;37844;57.126;24.288;2023-05-03T02:51:18;102021.75;;;5.04;100.00
51781;BME280;37844;57.126;24.288;2023-05-03T02:54:03;102022.38;;;5.00;100.00
51781;BME280;37844;57.126;24.288;2023-05-03T02:56:47;102024.41;;;5.05;100.00
51781;BME280;37844;57.126;24.288;2023-05-03T02:59:46;102026.88;;;5.04;100.00
51781;BME280;37844;57.126;24.288;2023-05-03T03:02:37;102020.63;;;4.99;100.00
51781;BME280;37844;57.126;24.288;2023-05-03T03:05:21;102033.56;;;5.02;100.00
51781;BME280;37844;57.126;24.288;2023-05-03T03:08:05;102033.41;;;4.99;100.00
51781;BME280;37844;57.126;24.288;2023-05-03T03:10:49;102031.44;;;5.09;100.00
51781;BME280;37844;57.126;24.288;2023-05-03T03:13:33;102034.34;;;5.16;100.00
51781;BME280;37844;57.126;24.288;2023-05-03T03:16:22;102044.84;;;5.05;100.00
51781;BME280;37844;57.126;24.288;2023-05-03T03:19:06;102042.66;;;4.97;100.00
51781;BME280;37844;57.126;24.288;2023-05-03T03:21:50;102047.16;;;5.01;100.00
51781;BME280;37844;57.126;24.288;2023-05-03T03:24:34;102046.06;;;4.97;100.00
51781;BME280;37844;57.126;24.288;2023-05-03T03:27:18;102055.41;;;4.97;100.00
51781;BME280;37844;57.126;24.288;2023-05-03T03:30:04;102060.44;;;4.95;100.00
51781;BME280;37844;57.126;24.288;2023-05-03T03:32:51;102063.09;;;4.97;100.00
51781;BME280;37844;57.126;24.288;2023-05-03T03:35:35;102068.19;;;5.12;100.00
51781;BME280;37844;57.126;24.288;2023-05-03T03:38:19;102072.56;;;5.14;100.00
51781;BME280;37844;57.126;24.288;2023-05-03T03:41:03;102077.25;;;5.21;100.00
51781;BME280;37844;57.126;24.288;2023-05-03T03:43:47;102081.84;;;5.27;100.00
51781;BME280;37844;57.126;24.288;2023-05-03T03:46:31;102088.84;;;5.31;100.00
51781;BME280;37844;57.126;24.288;2023-05-03T03:49:15;102083.38;;;5.40;100.00
51781;BME280;37844;57.126;24.288;2023-05-03T03:51:59;102086.63;;;5.52;100.00
51781;BME280;37844;57.126;24.288;2023-05-03T03:54:43;102098.94;;;5.59;100.00
51781;BME280;37844;57.126;24.288;2023-05-03T03:57:27;102101.44;;;5.74;100.00
51781;BME280;37844;57.126;24.288;2023-05-03T04:00:13;102106.69;;;5.92;100.00
51781;BME280;37844;57.126;24.288;2023-05-03T04:02:56;102104.19;;;6.08;100.00
51781;BME280;37844;57.126;24.288;2023-05-03T04:05:41;102106.75;;;6.25;100.00
51781;BME280;37844;57.126;24.288;2023-05-03T04:08:24;102113.63;;;6.42;100.00
51781;BME280;37844;57.126;24.288;2023-05-03T04:11:09;102109.88;;;6.52;100.00
51781;BME280;37844;57.126;24.288;2023-05-03T04:13:54;102114.75;;;6.47;100.00
51781;BME280;37844;57.126;24.288;2023-05-03T04:16:37;102118.28;;;6.49;100.00
51781;BME280;37844;57.126;24.288;2023-05-03T04:19:22;102111.16;;;6.44;100.00
51781;BME280;37844;57.126;24.288;2023-05-03T04:22:08;102121.16;;;6.39;100.00
51781;BME280;37844;57.126;24.288;2023-05-03T04:24:52;102124.69;;;6.41;100.00
51781;BME280;37844;57.126;24.288;2023-05-03T04:27:37;102124.84;;;6.44;100.00
51781;BME280;37844;57.126;24.288;2023-05-03T04:30:21;102119.56;;;6.41;100.00
51781;BME280;37844;57.126;24.288;2023-05-03T04:33:05;102121.16;;;6.39;100.00
51781;BME280;37844;57.126;24.288;2023-05-03T04:35:50;102129.81;;;6.41;100.00
51781;BME280;37844;57.126;24.288;2023-05-03T04:38:34;102129.00;;;6.42;100.00
51781;BME280;37844;57.126;24.288;2023-05-03T04:41:18;102137.81;;;6.47;100.00
51781;BME280;37844;57.126;24.288;2023-05-03T04:44:06;102136.28;;;6.51;100.00
51781;BME280;37844;57.126;24.288;2023-05-03T04:46:50;102140.06;;;6.57;100.00
51781;BME280;37844;57.126;24.288;2023-05-03T04:49:35;102148.69;;;6.59;100.00
51781;BME280;37844;57.126;24.288;2023-05-03T04:52:18;102151.56;;;6.66;100.00
51781;BME280;37844;57.126;24.288;2023-05-03T04:55:02;102150.53;;;6.62;100.00
51781;BME280;37844;57.126;24.288;2023-05-03T04:57:48;102147.50;;;6.69;100.00
51781;BME280;37844;57.126;24.288;2023-05-03T05:00:32;102150.75;;;6.67;100.00
51781;BME280;37844;57.126;24.288;2023-05-03T05:03:16;102157.28;;;6.60;100.00
51781;BME280;37844;57.126;24.288;2023-05-03T05:06:00;102153.06;;;6.78;100.00
51781;BME280;37844;57.126;24.288;2023-05-03T05:08:44;102158.75;;;6.89;100.00
51781;BME280;37844;57.126;24.288;2023-05-03T05:11:28;102152.03;;;6.91;100.00
51781;BME280;37844;57.126;24.288;2023-05-03T05:14:12;102157.44;;;6.97;100.00
51781;BME280;37844;57.126;24.288;2023-05-03T05:16:56;102151.63;;;7.00;100.00
51781;BME280;37844;57.126;24.288;2023-05-03T05:19:40;102157.63;;;7.00;100.00
51781;BME280;37844;57.126;24.288;2023-05-03T05:22:24;102159.59;;;7.06;100.00
51781;BME280;37844;57.126;24.288;2023-05-03T05:25:08;102156.06;;;7.04;100.00
51781;BME280;37844;57.126;24.288;2023-05-03T05:27:53;102166.22;;;7.19;100.00
51781;BME280;37844;57.126;24.288;2023-05-03T05:30:36;102159.81;;;7.45;100.00
51781;BME280;37844;57.126;24.288;2023-05-03T05:33:20;102159.28;;;7.88;100.00
51781;BME280;37844;57.126;24.288;2023-05-03T05:36:05;102153.44;;;8.47;100.00
51781;BME280;37844;57.126;24.288;2023-05-03T05:38:49;102162.81;;;8.47;100.00
51781;BME280;37844;57.126;24.288;2023-05-03T05:41:33;102165.63;;;8.34;100.00
51781;BME280;37844;57.126;24.288;2023-05-03T05:44:17;102166.19;;;8.08;100.00
51781;BME280;37844;57.126;24.288;2023-05-03T05:47:01;102170.13;;;8.00;100.00
51781;BME280;37844;57.126;24.288;2023-05-03T05:49:45;102175.13;;;7.97;100.00
51781;BME280;37844;57.126;24.288;2023-05-03T05:52:29;102173.88;;;8.64;100.00
51781;BME280;37844;57.126;24.288;2023-05-03T05:55:13;102169.94;;;9.77;100.00
51781;BME280;37844;57.126;24.288;2023-05-03T05:57:58;102172.41;;;9.74;100.00
51781;BME280;37844;57.126;24.288;2023-05-03T06:00:42;102175.31;;;10.51;100.00
51781;BME280;37844;57.126;24.288;2023-05-03T06:03:26;102177.16;;;11.03;100.00
51781;BME280;37844;57.126;24.288;2023-05-03T06:06:10;102170.88;;;10.95;100.00
51781;BME280;37844;57.126;24.288;2023-05-03T06:08:53;102184.81;;;11.00;100.00
51781;BME280;37844;57.126;24.288;2023-05-03T06:11:38;102172.28;;;10.37;100.00
51781;BME280;37844;57.126;24.288;2023-05-03T06:14:21;102186.00;;;10.15;100.00
51781;BME280;37844;57.126;24.288;2023-05-03T06:17:06;102181.47;;;9.87;100.00
51781;BME280;37844;57.126;24.288;2023-05-03T06:19:50;102181.88;;;9.75;100.00
51781;BME280;37844;57.126;24.288;2023-05-03T06:22:34;102187.28;;;9.59;100.00
51781;BME280;37844;57.126;24.288;2023-05-03T06:25:18;102191.84;;;9.45;100.00
51781;BME280;37844;57.126;24.288;2023-05-03T06:28:02;102197.88;;;9.45;100.00
51781;BME280;37844;57.126;24.288;2023-05-03T06:30:49;102202.53;;;9.33;100.00
51781;BME280;37844;57.126;24.288;2023-05-03T06:33:34;102194.59;;;9.28;100.00
51781;BME280;37844;57.126;24.288;2023-05-03T06:36:18;102203.47;;;9.35;100.00
51781;BME280;37844;57.126;24.288;2023-05-03T06:39:02;102199.78;;;9.72;100.00
51781;BME280;37844;57.126;24.288;2023-05-03T06:41:47;102197.06;;;10.81;100.00
51781;BME280;37844;57.126;24.288;2023-05-03T06:44:31;102209.84;;;11.28;94.09
51781;BME280;37844;57.126;24.288;2023-05-03T06:47:15;102204.00;;;10.36;91.25
51781;BME280;37844;57.126;24.288;2023-05-03T06:49:59;102206.81;;;9.97;92.00
51781;BME280;37844;57.126;24.288;2023-05-03T06:52:43;102226.13;;;9.65;92.84
51781;BME280;37844;57.126;24.288;2023-05-03T06:55:27;102224.78;;;9.53;95.42
51781;BME280;37844;57.126;24.288;2023-05-03T06:58:11;102226.56;;;9.54;97.03
51781;BME280;37844;57.126;24.288;2023-05-03T07:00:55;102218.78;;;9.53;99.52
51781;BME280;37844;57.126;24.288;2023-05-03T07:03:39;102218.13;;;9.80;100.00
51781;BME280;37844;57.126;24.288;2023-05-03T07:06:23;102221.88;;;11.53;99.34
51781;BME280;37844;57.126;24.288;2023-05-03T07:09:06;102215.69;;;13.25;87.19
51781;BME280;37844;57.126;24.288;2023-05-03T07:11:51;102217.47;;;15.26;81.10
51781;BME280;37844;57.126;24.288;2023-05-03T07:14:34;102222.16;;;15.48;72.49
51781;BME280;37844;57.126;24.288;2023-05-03T07:17:18;102214.22;;;15.94;69.51
51781;BME280;37844;57.126;24.288;2023-05-03T07:20:02;102214.63;;;16.95;65.79
51781;BME280;37844;57.126;24.288;2023-05-03T07:22:47;102216.59;;;18.60;62.98
51781;BME280;37844;57.126;24.288;2023-05-03T07:25:31;102224.63;;;19.41;59.81
51781;BME280;37844;57.126;24.288;2023-05-03T07:28:15;102231.59;;;19.39;57.04
51781;BME280;37844;57.126;24.288;2023-05-03T07:30:59;102224.59;;;19.98;54.89
51781;BME280;37844;57.126;24.288;2023-05-03T07:33:43;102233.97;;;18.46;52.68
51781;BME280;37844;57.126;24.288;2023-05-03T07:36:27;102238.38;;;16.49;55.40
51781;BME280;37844;57.126;24.288;2023-05-03T07:39:11;102247.09;;;15.39;56.57
51781;BME280;37844;57.126;24.288;2023-05-03T07:41:55;102245.28;;;15.85;57.75
51781;BME280;37844;57.126;24.288;2023-05-03T07:44:39;102245.56;;;15.52;58.88
51781;BME280;37844;57.126;24.288;2023-05-03T07:47:23;102260.75;;;15.76;58.14
51781;BME280;37844;57.126;24.288;2023-05-03T07:50:07;102257.38;;;15.31;57.54
51781;BME280;37844;57.126;24.288;2023-05-03T07:52:51;102251.13;;;14.76;58.72
51781;BME280;37844;57.126;24.288;2023-05-03T07:55:35;102256.22;;;15.64;59.52
51781;BME280;37844;57.126;24.288;2023-05-03T07:58:20;102256.69;;;14.93;57.15
51781;BME280;37844;57.126;24.288;2023-05-03T08:01:11;102258.91;;;14.74;57.93
51781;BME280;37844;57.126;24.288;2023-05-03T08:03:55;102263.31;;;14.39;58.78
51781;BME280;37844;57.126;24.288;2023-05-03T08:06:39;102263.56;;;13.74;59.53
51781;BME280;37844;57.126;24.288;2023-05-03T08:09:23;102264.72;;;13.50;61.64
51781;BME280;37844;57.126;24.288;2023-05-03T08:12:07;102264.25;;;14.82;60.13
51781;BME280;37844;57.126;24.288;2023-05-03T08:14:52;102259.28;;;14.93;57.92
51781;BME280;37844;57.126;24.288;2023-05-03T08:17:40;102261.78;;;15.35;57.88
51781;BME280;37844;57.126;24.288;2023-05-03T08:20:24;102258.88;;;16.93;56.06
51781;BME280;37844;57.126;24.288;2023-05-03T08:23:12;102256.34;;;17.01;53.79
51781;BME280;37844;57.126;24.288;2023-05-03T08:25:56;102249.06;;;17.56;53.03
51781;BME280;37844;57.126;24.288;2023-05-03T08:28:40;102250.19;;;16.93;52.23
51781;BME280;37844;57.126;24.288;2023-05-03T08:31:24;102250.84;;;17.64;52.45
51781;BME280;37844;57.126;24.288;2023-05-03T08:34:08;102252.75;;;17.83;51.11
51781;BME280;37844;57.126;24.288;2023-05-03T08:36:59;102251.31;;;18.28;50.76
51781;BME280;37844;57.126;24.288;2023-05-03T08:39:43;102250.78;;;19.41;48.31
51781;BME280;37844;57.126;24.288;2023-05-03T08:42:27;102238.41;;;20.42;46.44
51781;BME280;37844;57.126;24.288;2023-05-03T08:45:14;102247.09;;;20.56;46.23
51781;BME280;37844;57.126;24.288;2023-05-03T08:47:58;102243.97;;;21.37;44.43
51781;BME280;37844;57.126;24.288;2023-05-03T08:50:45;102241.06;;;21.73;44.38
51781;BME280;37844;57.126;24.288;2023-05-03T08:53:29;102252.84;;;22.18;42.76
51781;BME280;37844;57.126;24.288;2023-05-03T08:56:24;102244.41;;;22.66;42.21
51781;BME280;37844;57.126;24.288;2023-05-03T08:59:10;102240.88;;;21.90;42.54
51781;BME280;37844;57.126;24.288;2023-05-03T09:01:54;102240.31;;;22.43;41.50
51781;BME280;37844;57.126;24.288;2023-05-03T09:04:38;102241.94;;;22.54;41.28
51781;BME280;37844;57.126;24.288;2023-05-03T09:07:22;102248.38;;;22.30;41.65
51781;BME280;37844;57.126;24.288;2023-05-03T09:10:21;102237.22;;;22.09;41.51
51781;BME280;37844;57.126;24.288;2023-05-03T09:13:05;102239.69;;;22.20;41.33
51781;BME280;37844;57.126;24.288;2023-05-03T09:15:53;102239.06;;;22.71;41.40
51781;BME280;37844;57.126;24.288;2023-05-03T09:18:37;102240.19;;;22.53;40.71
51781;BME280;37844;57.126;24.288;2023-05-03T09:21:22;102239.06;;;22.74;39.94
51781;BME280;37844;57.126;24.288;2023-05-03T09:26:57;102234.06;;;23.16;39.30
51781;BME280;37844;57.126;24.288;2023-05-03T09:29:41;102236.13;;;22.95;39.68
51781;BME280;37844;57.126;24.288;2023-05-03T09:32:25;102240.66;;;22.14;39.96
51781;BME280;37844;57.126;24.288;2023-05-03T09:35:12;102232.81;;;22.08;41.30
51781;BME280;37844;57.126;24.288;2023-05-03T09:37:57;102224.91;;;22.11;39.79
51781;BME280;37844;57.126;24.288;2023-05-03T09:40:44;102235.41;;;21.15;40.60
51781;BME280;37844;57.126;24.288;2023-05-03T09:43:28;102237.50;;;20.60;40.80
51781;BME280;37844;57.126;24.288;2023-05-03T09:46:12;102236.75;;;20.07;41.82
51781;BME280;37844;57.126;24.288;2023-05-03T09:48:56;102231.59;;;19.85;42.57
51781;BME280;37844;57.126;24.288;2023-05-03T09:51:41;102244.66;;;19.25;42.94
51781;BME280;37844;57.126;24.288;2023-05-03T09:54:24;102236.81;;;19.38;44.27
51781;BME280;37844;57.126;24.288;2023-05-03T09:57:08;102241.19;;;19.25;43.81
51781;BME280;37844;57.126;24.288;2023-05-03T09:59:52;102239.44;;;19.48;43.85
51781;BME280;37844;57.126;24.288;2023-05-03T10:02:37;102241.91;;;18.72;43.65
51781;BME280;37844;57.126;24.288;2023-05-03T10:05:21;102238.22;;;18.23;44.56
51781;BME280;37844;57.126;24.288;2023-05-03T10:08:05;102236.84;;;17.51;44.72
51781;BME280;37844;57.126;24.288;2023-05-03T10:10:50;102234.34;;;17.66;45.36
51781;BME280;37844;57.126;24.288;2023-05-03T10:13:36;102228.06;;;17.40;44.92
51781;BME280;37844;57.126;24.288;2023-05-03T10:16:20;102228.03;;;17.36;46.29
51781;BME280;37844;57.126;24.288;2023-05-03T10:22:06;102226.06;;;17.12;47.53
51781;BME280;37844;57.126;24.288;2023-05-03T10:30:31;102224.72;;;16.69;46.70
51781;BME280;37844;57.126;24.288;2023-05-03T10:36:05;102234.81;;;16.43;46.66
51781;BME280;37844;57.126;24.288;2023-05-03T10:38:49;102242.41;;;16.27;47.14
51781;BME280;37844;57.126;24.288;2023-05-03T10:41:35;102239.69;;;16.18;47.19
51781;BME280;37844;57.126;24.288;2023-05-03T10:44:26;102239.59;;;16.09;47.12
51781;BME280;37844;57.126;24.288;2023-05-03T10:47:16;102222.84;;;15.90;47.07
51781;BME280;37844;57.126;24.288;2023-05-03T10:52:54;102252.69;;;15.62;48.46
51781;BME280;37844;57.126;24.288;2023-05-03T10:55:38;102249.59;;;15.84;49.94
51781;BME280;37844;57.126;24.288;2023-05-03T10:58:22;102249.53;;;15.80;49.04
51781;BME280;37844;57.126;24.288;2023-05-03T11:01:06;102248.25;;;15.56;49.11
51781;BME280;37844;57.126;24.288;2023-05-03T11:04:06;102251.88;;;15.66;49.10
51781;BME280;37844;57.126;24.288;2023-05-03T11:06:51;102250.66;;;15.44;48.08
51781;BME280;37844;57.126;24.288;2023-05-03T11:09:39;102248.41;;;15.65;49.92
51781;BME280;37844;57.126;24.288;2023-05-03T11:12:23;102244.03;;;15.61;49.43
51781;BME280;37844;57.126;24.288;2023-05-03T11:15:07;102244.06;;;15.64;48.99
51781;BME280;37844;57.126;24.288;2023-05-03T11:17:51;102248.47;;;15.68;48.54
51781;BME280;37844;57.126;24.288;2023-05-03T11:20:35;102239.44;;;15.45;48.51
51781;BME280;37844;57.126;24.288;2023-05-03T11:23:23;102250.41;;;15.29;50.35
51781;BME280;37844;57.126;24.288;2023-05-03T11:26:08;102248.84;;;15.38;50.20
51781;BME280;37844;57.126;24.288;2023-05-03T11:28:55;102251.03;;;15.15;50.49
51781;BME280;37844;57.126;24.288;2023-05-03T11:31:40;102262.81;;;15.45;51.21
51781;BME280;37844;57.126;24.288;2023-05-03T11:34:25;102256.97;;;15.58;51.18
51781;BME280;37844;57.126;24.288;2023-05-03T11:37:09;102261.31;;;15.09;50.46
51781;BME280;37844;57.126;24.288;2023-05-03T11:39:53;102266.88;;;14.85;51.16
51781;BME280;37844;57.126;24.288;2023-05-03T11:42:49;102271.25;;;14.45;52.38
51781;BME280;37844;57.126;24.288;2023-05-03T11:48:23;102279.88;;;13.05;56.47
51781;BME280;37844;57.126;24.288;2023-05-03T11:51:08;102274.25;;;13.20;60.64
51781;BME280;37844;57.126;24.288;2023-05-03T11:53:57;102298.16;;;13.11;65.09
51781;BME280;37844;57.126;24.288;2023-05-03T11:56:42;102299.84;;;13.09;64.49
51781;BME280;37844;57.126;24.288;2023-05-03T11:59:36;102307.31;;;12.98;66.41
51781;BME280;37844;57.126;24.288;2023-05-03T12:02:20;102316.16;;;13.06;68.18
51781;BME280;37844;57.126;24.288;2023-05-03T12:05:05;102315.25;;;13.04;68.25
51781;BME280;37844;57.126;24.288;2023-05-03T12:07:49;102315.31;;;12.47;68.84
51781;BME280;37844;57.126;24.288;2023-05-03T12:10:34;102302.50;;;12.51;69.47
51781;BME280;37844;57.126;24.288;2023-05-03T12:13:33;102310.28;;;12.51;68.18
51781;BME280;37844;57.126;24.288;2023-05-03T12:16:20;102318.97;;;12.55;70.22
51781;BME280;37844;57.126;24.288;2023-05-03T12:19:05;102318.81;;;12.49;69.51
51781;BME280;37844;57.126;24.288;2023-05-03T12:21:49;102321.97;;;12.39;70.82
51781;BME280;37844;57.126;24.288;2023-05-03T12:24:33;102321.41;;;12.22;69.12
51781;BME280;37844;57.126;24.288;2023-05-03T12:27:17;102327.34;;;12.18;70.09
51781;BME280;37844;57.126;24.288;2023-05-03T12:30:01;102326.41;;;12.16;71.81
51781;BME280;37844;57.126;24.288;2023-05-03T12:32:45;102331.97;;;12.01;71.01
51781;BME280;37844;57.126;24.288;2023-05-03T12:35:29;102337.28;;;11.81;70.76
51781;BME280;37844;57.126;24.288;2023-05-03T12:38:13;102335.88;;;11.40;75.28
51781;BME280;37844;57.126;24.288;2023-05-03T12:40:57;102335.59;;;11.56;75.62
51781;BME280;37844;57.126;24.288;2023-05-03T12:43:42;102331.84;;;11.48;76.51
51781;BME280;37844;57.126;24.288;2023-05-03T12:46:26;102336.66;;;11.37;76.55
51781;BME280;37844;57.126;24.288;2023-05-03T12:49:10;102331.75;;;11.45;76.86
51781;BME280;37844;57.126;24.288;2023-05-03T12:51:54;102338.44;;;11.64;78.04
51781;BME280;37844;57.126;24.288;2023-05-03T12:54:42;102337.34;;;11.57;76.28
51781;BME280;37844;57.126;24.288;2023-05-03T12:57:28;102333.13;;;11.85;76.91
51781;BME280;37844;57.126;24.288;2023-05-03T13:00:13;102335.97;;;11.93;76.90
51781;BME280;37844;57.126;24.288;2023-05-03T13:02:58;102332.13;;;12.05;76.24
51781;BME280;37844;57.126;24.288;2023-05-03T13:05:42;102338.06;;;12.30;73.97
51781;BME280;37844;57.126;24.288;2023-05-03T13:08:26;102335.53;;;12.32;72.87
51781;BME280;37844;57.126;24.288;2023-05-03T13:11:11;102348.09;;;11.94;74.88
51781;BME280;37844;57.126;24.288;2023-05-03T13:13:54;102343.16;;;12.01;74.67
51781;BME280;37844;57.126;24.288;2023-05-03T13:16:39;102345.16;;;11.84;73.02
51781;BME280;37844;57.126;24.288;2023-05-03T13:19:23;102345.94;;;11.82;74.39
51781;BME280;37844;57.126;24.288;2023-05-03T13:22:07;102357.34;;;11.87;75.41
51781;BME280;37844;57.126;24.288;2023-05-03T13:24:51;102345.44;;;11.92;75.17
51781;BME280;37844;57.126;24.288;2023-05-03T13:27:35;102350.84;;;11.98;74.26
51781;BME280;37844;57.126;24.288;2023-05-03T13:30:19;102349.94;;;11.98;72.20
51781;BME280;37844;57.126;24.288;2023-05-03T13:33:04;102344.78;;;11.74;69.97
51781;BME280;37844;57.126;24.288;2023-05-03T13:35:48;102350.59;;;11.42;70.57
51781;BME280;37844;57.126;24.288;2023-05-03T13:38:32;102343.56;;;11.14;73.24
51781;BME280;37844;57.126;24.288;2023-05-03T13:41:16;102347.94;;;11.15;72.42
51781;BME280;37844;57.126;24.288;2023-05-03T13:44:01;102341.16;;;11.19;72.47
51781;BME280;37844;57.126;24.288;2023-05-03T13:46:45;102332.22;;;11.09;73.81
51781;BME280;37844;57.126;24.288;2023-05-03T13:49:28;102335.56;;;11.31;74.90
51781;BME280;37844;57.126;24.288;2023-05-03T13:52:13;102327.47;;;11.45;75.07
51781;BME280;37844;57.126;24.288;2023-05-03T13:54:57;102327.00;;;11.57;73.05
51781;BME280;37844;57.126;24.288;2023-05-03T13:57:43;102327.66;;;11.76;72.98
51781;BME280;37844;57.126;24.288;2023-05-03T14:00:27;102327.66;;;11.76;70.22
51781;BME280;37844;57.126;24.288;2023-05-03T14:03:11;102327.16;;;11.60;66.97
51781;BME280;37844;57.126;24.288;2023-05-03T14:05:55;102328.00;;;11.61;68.39
51781;BME280;37844;57.126;24.288;2023-05-03T14:08:39;102332.34;;;11.62;65.73
51781;BME280;37844;57.126;24.288;2023-05-03T14:11:23;102323.03;;;11.41;65.25
51781;BME280;37844;57.126;24.288;2023-05-03T14:14:07;102311.47;;;11.30;64.17
51781;BME280;37844;57.126;24.288;2023-05-03T14:16:51;102312.09;;;11.24;63.74
51781;BME280;37844;57.126;24.288;2023-05-03T14:19:35;102320.63;;;11.22;64.54
51781;BME280;37844;57.126;24.288;2023-05-03T14:22:20;102316.28;;;11.21;64.60
51781;BME280;37844;57.126;24.288;2023-05-03T14:25:04;102317.78;;;11.14;65.21
51781;BME280;37844;57.126;24.288;2023-05-03T14:27:48;102312.25;;;11.03;64.43
51781;BME280;37844;57.126;24.288;2023-05-03T14:30:32;102310.13;;;10.93;63.55
51781;BME280;37844;57.126;24.288;2023-05-03T14:33:16;102306.44;;;10.87;64.62
51781;BME280;37844;57.126;24.288;2023-05-03T14:36:01;102311.44;;;10.82;65.66
51781;BME280;37844;57.126;24.288;2023-05-03T14:38:46;102313.47;;;10.91;66.88
51781;BME280;37844;57.126;24.288;2023-05-03T14:41:30;102311.31;;;11.01;66.62
51781;BME280;37844;57.126;24.288;2023-05-03T14:44:15;102303.91;;;11.11;66.77